Home   Weather   India   Chittorgarh   Past weeks
Flag for India

Past Weather in Chittorgarh, Rajasthan, India — Yesterday and Last 2 Weeks

Currently: 82 °F. Drizzle. Broken clouds. (Weather station: Jaipur / Sanganer, India). See more current weather

Past Weather in Chittorgarh — Graph

°F

Chittorgarh Temperature Yesterday

Maximum temperature yesterday: 99 °F (at 2:00 pm)
Minimum temperature yesterday: 84 °F (at 4:30 am)
Average temperature yesterday: 90 °F

High & Low Weather Summary for the Past Weeks

 TemperatureHumidityPressure
High104 °F (Jun 8, 3:00 pm)89% (Jun 19, 3:00 pm)29.74 "Hg (Jun 19, 3:00 pm)
Low75 °F (Jun 19, 3:30 pm)23% (Jun 9, 5:00 pm)29.30 "Hg (Jun 15, 5:00 pm)
Average91 °F46%29.53 "Hg
* Reported Jun 4 3:30 pm — Jun 19 4:00 pm, Chittorgarh. Weather by CustomWeather, © 2021

Note: Actual official high and low records may vary slightly from our data, if they occured in-between our weather recording intervals... More about our weather records

Chittorgarh Weather History for the Previous 24 Hours

Scroll right to see more
 ConditionsComfort  
Time TempWeatherWind HumidityBarometerVisibility
4:00 pm
Sat, Jun 19
79 °FDrizzle. Broken clouds.10 mph74%29.53 "Hg1 mi
3:30 pm75 °FMild.12 mph89%29.53 "Hg1 mi
3:00 pm77 °FWarm.17 mph89%29.53 "Hg1 mi
2:30 pm95 °FBroken clouds.9 mph41%29.50 "Hg2 mi
2:00 pm95 °FBroken clouds.7 mph41%29.53 "Hg3 mi
1:30 pm95 °FBroken clouds.7 mph39%29.53 "Hg3 mi
1:00 pm95 °FBroken clouds.9 mph41%29.53 "Hg3 mi
12:30 pm93 °FScattered clouds.9 mph44%29.53 "Hg2 mi
12:00 pm93 °FScattered clouds.7 mph47%29.56 "Hg2 mi
11:30 am91 °FScattered clouds.9 mph49%29.56 "Hg2 mi
11:00 am91 °FScattered clouds.12 mph49%29.56 "Hg2 mi
10:30 am90 °FScattered clouds.12 mph49%29.56 "Hg2 mi
10:00 am88 °FBroken clouds.9 mph55%29.56 "Hg2 mi
9:30 am88 °FBroken clouds.9 mph55%29.59 "Hg2 mi
9:00 am86 °FBroken clouds.9 mph59%29.59 "Hg2 mi
8:30 am84 °FPartly sunny.7 mph62%29.59 "Hg2 mi
8:00 am84 °FScattered clouds.7 mph62%29.56 "Hg2 mi
7:30 am84 °FHaze.7 mph62%29.56 "Hg2 mi
7:00 am82 °FScattered clouds.7 mph62%29.56 "Hg2 mi
6:30 am82 °FScattered clouds.7 mph66%29.56 "Hg1 mi
6:00 am81 °FPassing clouds.6 mph70%29.53 "Hg1 mi
5:30 am81 °FPassing clouds.7 mph70%29.53 "Hg1 mi
5:00 am82 °FPassing clouds.7 mph66%29.53 "Hg1 mi
4:30 am82 °FPassing clouds.7 mph66%29.53 "Hg1 mi
4:00 am82 °FPassing clouds.7 mph66%29.53 "Hg1 mi
3:30 am84 °FPassing clouds.9 mph62%29.53 "Hg1 mi
3:00 am84 °FPartly cloudy.5 mph70%29.56 "Hg1 mi
2:30 am86 °FPartly cloudy.7 mph66%29.53 "Hg1 mi
2:00 am86 °FPartly cloudy.7 mph66%29.53 "Hg1 mi
1:00 am86 °FPartly cloudy.10 mph62%29.56 "Hg1 mi
12:30 am86 °FPartly cloudy.9 mph62%29.56 "Hg1 mi
12:00 am88 °FPartly cloudy.10 mph59%29.56 "Hg1 mi
11:30 pm
Fri, Jun 18
88 °FPartly cloudy.12 mph59%29.56 "Hg1 mi
11:00 pm88 °FPartly cloudy.12 mph59%29.56 "Hg1 mi
10:30 pm88 °FPartly cloudy.12 mph59%29.56 "Hg1 mi
10:00 pm90 °FPartly cloudy.13 mph55%29.56 "Hg2 mi
9:30 pm91 °FPartly cloudy.7 mph49%29.56 "Hg2 mi
9:00 pm88 °FPartly cloudy.5 mph55%29.53 "Hg2 mi
8:30 pm90 °FPartly cloudy.9 mph52%29.53 "Hg2 mi
8:00 pm91 °FPartly cloudy.6 mph44%29.50 "Hg2 mi
7:30 pm91 °FBroken clouds.7 mph44%29.50 "Hg2 mi
7:00 pm91 °FScattered clouds.9 mph44%29.47 "Hg2 mi
6:30 pm93 °FBroken clouds.7 mph41%29.47 "Hg2 mi
6:00 pm95 °FBroken clouds.9 mph36%29.45 "Hg2 mi
5:30 pm97 °FBroken clouds.7 mph30%29.45 "Hg2 mi
5:00 pm97 °FBroken clouds.7 mph30%29.45 "Hg3 mi
Weather by CustomWeather, © 2021

See weather overview